sensor_id;sensor_type;location;lat;lon;timestamp;pressure;altitude;pressure_sealevel;temperature;humidity
44926;BME280;30662;51.210;7.656;2024-03-23T00:56:17;150428.03;;;6.49;100.00
44926;BME280;30662;51.210;7.656;2024-03-23T00:58:43;150404.06;;;6.40;100.00
44926;BME280;30662;51.210;7.656;2024-03-23T01:01:09;150400.31;;;6.38;100.00
44926;BME280;30662;51.210;7.656;2024-03-23T01:03:35;150382.63;;;6.31;100.00
44926;BME280;30662;51.210;7.656;2024-03-23T01:06:00;150387.66;;;6.33;100.00
44926;BME280;30662;51.210;7.656;2024-03-23T01:08:27;150396.47;;;6.36;100.00
44926;BME280;30662;51.210;7.656;2024-03-23T01:10:58;150373.78;;;6.27;100.00
44926;BME280;30662;51.210;7.656;2024-03-23T01:13:24;150383.91;;;6.31;100.00
44926;BME280;30662;51.210;7.656;2024-03-23T01:15:51;150391.44;;;6.34;100.00
44926;BME280;30662;51.210;7.656;2024-03-23T01:18:17;150411.63;;;6.43;100.00
44926;BME280;30662;51.210;7.656;2024-03-23T01:20:42;150419.22;;;6.46;100.00
44926;BME280;30662;51.210;7.656;2024-03-23T01:23:10;150434.38;;;6.52;100.00
44926;BME280;30662;51.210;7.656;2024-03-23T01:25:36;150391.44;;;6.34;100.00
44926;BME280;30662;51.210;7.656;2024-03-23T01:28:03;150420.50;;;6.46;100.00
44926;BME280;30662;51.210;7.656;2024-03-23T01:30:29;150393.97;;;6.35;100.00
44926;BME280;30662;51.210;7.656;2024-03-23T01:32:55;150366.22;;;6.24;100.00
44926;BME280;30662;51.210;7.656;2024-03-23T01:35:20;150353.59;;;6.19;100.00
44926;BME280;30662;51.210;7.656;2024-03-23T01:37:46;150381.38;;;6.30;100.00
44926;BME280;30662;51.210;7.656;2024-03-23T01:40:12;150339.69;;;6.14;100.00
44926;BME280;30662;51.210;7.656;2024-03-23T01:42:38;150324.56;;;6.07;100.00
44926;BME280;30662;51.210;7.656;2024-03-23T01:45:07;150287.97;;;5.93;100.00
44926;BME280;30662;51.210;7.656;2024-03-23T01:47:33;150313.22;;;6.03;100.00
44926;BME280;30662;51.210;7.656;2024-03-23T01:49:59;150286.72;;;5.92;100.00
44926;BME280;30662;51.210;7.656;2024-03-23T01:52:25;150296.81;;;5.96;100.00
44926;BME280;30662;51.210;7.656;2024-03-23T01:54:51;150263.97;;;5.83;100.00
44926;BME280;30662;51.210;7.656;2024-03-23T01:57:17;150294.31;;;5.95;100.00
44926;BME280;30662;51.210;7.656;2024-03-23T01:59:43;150291.78;;;5.94;100.00
44926;BME280;30662;51.210;7.656;2024-03-23T02:02:10;150266.50;;;5.84;100.00
44926;BME280;30662;51.210;7.656;2024-03-23T02:04:36;150266.50;;;5.84;100.00
44926;BME280;30662;51.210;7.656;2024-03-23T02:07:02;150287.97;;;5.93;100.00
44926;BME280;30662;51.210;7.656;2024-03-23T02:09:28;150261.44;;;5.82;100.00
44926;BME280;30662;51.210;7.656;2024-03-23T02:11:54;150242.53;;;5.74;100.00
44926;BME280;30662;51.210;7.656;2024-03-23T02:14:20;150248.81;;;5.77;100.00
44926;BME280;30662;51.210;7.656;2024-03-23T02:16:46;150275.34;;;5.88;100.00
44926;BME280;30662;51.210;7.656;2024-03-23T02:19:13;150286.72;;;5.92;100.00
44926;BME280;30662;51.210;7.656;2024-03-23T02:21:38;150276.59;;;5.88;100.00
44926;BME280;30662;51.210;7.656;2024-03-23T02:24:06;150258.94;;;5.81;100.00
44926;BME280;30662;51.210;7.656;2024-03-23T02:26:32;150213.50;;;5.63;100.00
44926;BME280;30662;51.210;7.656;2024-03-23T02:28:57;150231.16;;;5.70;100.00
44926;BME280;30662;51.210;7.656;2024-03-23T02:31:23;150204.69;;;5.59;100.00
44926;BME280;30662;51.210;7.656;2024-03-23T02:33:49;150175.69;;;5.47;100.00
44926;BME280;30662;51.210;7.656;2024-03-23T02:36:15;150160.53;;;5.41;100.00
44926;BME280;30662;51.210;7.656;2024-03-23T02:38:40;150141.63;;;5.34;100.00
44926;BME280;30662;51.210;7.656;2024-03-23T02:41:07;150089.91;;;5.13;100.00
44926;BME280;30662;51.210;7.656;2024-03-23T02:43:33;150082.38;;;5.10;100.00
44926;BME280;30662;51.210;7.656;2024-03-23T02:45:59;150100.03;;;5.17;100.00
44926;BME280;30662;51.210;7.656;2024-03-23T02:48:24;150086.16;;;5.11;100.00
44926;BME280;30662;51.210;7.656;2024-03-23T02:50:50;150102.53;;;5.18;100.00
44926;BME280;30662;51.210;7.656;2024-03-23T02:53:16;150117.69;;;5.24;100.00
44926;BME280;30662;51.210;7.656;2024-03-23T02:55:41;150112.66;;;5.22;100.00
44926;BME280;30662;51.210;7.656;2024-03-23T02:58:09;150105.06;;;5.19;100.00
44926;BME280;30662;51.210;7.656;2024-03-23T03:00:34;150084.91;;;5.11;100.00
44926;BME280;30662;51.210;7.656;2024-03-23T03:03:00;150063.47;;;5.02;100.00
44926;BME280;30662;51.210;7.656;2024-03-23T03:05:26;150064.72;;;5.03;100.00
44926;BME280;30662;51.210;7.656;2024-03-23T03:07:53;150035.72;;;4.91;100.00
44926;BME280;30662;51.210;7.656;2024-03-23T03:10:19;150001.69;;;4.77;100.00
44926;BME280;30662;51.210;7.656;2024-03-23T03:12:45;150016.81;;;4.83;100.00
44926;BME280;30662;51.210;7.656;2024-03-23T03:15:12;149990.38;;;4.73;100.00
44926;BME280;30662;51.210;7.656;2024-03-23T03:17:38;149995.41;;;4.75;100.00
44926;BME280;30662;51.210;7.656;2024-03-23T03:20:05;150004.25;;;4.78;100.00
44926;BME280;30662;51.210;7.656;2024-03-23T03:22:31;149976.50;;;4.67;100.00
44926;BME280;30662;51.210;7.656;2024-03-23T03:24:56;149973.97;;;4.66;100.00
44926;BME280;30662;51.210;7.656;2024-03-23T03:27:22;149970.22;;;4.64;100.00
44926;BME280;30662;51.210;7.656;2024-03-23T03:29:48;149985.28;;;4.70;100.00
44926;BME280;30662;51.210;7.656;2024-03-23T03:32:15;149905.91;;;4.38;100.00
44926;BME280;30662;51.210;7.656;2024-03-23T03:34:40;149929.84;;;4.48;100.00
44926;BME280;30662;51.210;7.656;2024-03-23T03:37:06;149922.31;;;4.45;100.00
44926;BME280;30662;51.210;7.656;2024-03-23T03:39:32;149921.03;;;4.45;100.00
44926;BME280;30662;51.210;7.656;2024-03-23T03:41:57;149898.38;;;4.35;100.00
44926;BME280;30662;51.210;7.656;2024-03-23T03:44:23;149909.69;;;4.40;100.00
44926;BME280;30662;51.210;7.656;2024-03-23T03:46:49;149890.78;;;4.32;100.00
44926;BME280;30662;51.210;7.656;2024-03-23T03:49:16;149885.75;;;4.30;100.00
44926;BME280;30662;51.210;7.656;2024-03-23T03:51:42;149910.94;;;4.40;100.00
44926;BME280;30662;51.210;7.656;2024-03-23T03:54:07;149908.44;;;4.39;100.00
44926;BME280;30662;51.210;7.656;2024-03-23T03:56:33;149892.03;;;4.33;100.00
44926;BME280;30662;51.210;7.656;2024-03-23T03:58:59;149880.75;;;4.28;100.00
44926;BME280;30662;51.210;7.656;2024-03-23T04:01:24;149879.47;;;4.28;100.00
44926;BME280;30662;51.210;7.656;2024-03-23T04:03:50;149888.28;;;4.31;100.00
44926;BME280;30662;51.210;7.656;2024-03-23T04:06:20;149863.09;;;4.21;100.00
44926;BME280;30662;51.210;7.656;2024-03-23T04:08:46;149861.84;;;4.21;100.00
44926;BME280;30662;51.210;7.656;2024-03-23T04:11:11;149844.22;;;4.13;100.00
44926;BME280;30662;51.210;7.656;2024-03-23T04:13:37;149840.38;;;4.12;100.00
44926;BME280;30662;51.210;7.656;2024-03-23T04:16:04;149854.25;;;4.18;100.00
44926;BME280;30662;51.210;7.656;2024-03-23T04:18:29;149868.13;;;4.23;100.00
44926;BME280;30662;51.210;7.656;2024-03-23T04:20:55;149835.34;;;4.10;100.00
44926;BME280;30662;51.210;7.656;2024-03-23T04:23:22;149847.97;;;4.15;100.00
44926;BME280;30662;51.210;7.656;2024-03-23T04:25:48;149864.34;;;4.22;100.00
44926;BME280;30662;51.210;7.656;2024-03-23T04:28:14;149832.84;;;4.09;100.00
44926;BME280;30662;51.210;7.656;2024-03-23T04:30:39;149854.25;;;4.18;100.00
44926;BME280;30662;51.210;7.656;2024-03-23T04:33:05;149837.88;;;4.11;100.00
44926;BME280;30662;51.210;7.656;2024-03-23T04:35:31;149849.22;;;4.15;100.00
44926;BME280;30662;51.210;7.656;2024-03-23T04:37:56;149836.63;;;4.10;100.00
44926;BME280;30662;51.210;7.656;2024-03-23T04:40:23;149824.00;;;4.05;100.00
44926;BME280;30662;51.210;7.656;2024-03-23T04:42:49;149845.47;;;4.14;100.00
44926;BME280;30662;51.210;7.656;2024-03-23T04:45:15;149873.16;;;4.25;100.00
44926;BME280;30662;51.210;7.656;2024-03-23T04:47:41;149858.03;;;4.19;100.00
44926;BME280;30662;51.210;7.656;2024-03-23T04:50:07;149824.00;;;4.05;100.00
44926;BME280;30662;51.210;7.656;2024-03-23T04:52:33;149830.34;;;4.08;100.00
44926;BME280;30662;51.210;7.656;2024-03-23T04:54:58;149869.38;;;4.24;100.00
44926;BME280;30662;51.210;7.656;2024-03-23T04:57:25;149897.13;;;4.35;100.00
44926;BME280;30662;51.210;7.656;2024-03-23T04:59:51;149820.22;;;4.04;100.00
44926;BME280;30662;51.210;7.656;2024-03-23T05:02:17;149795.06;;;3.94;100.00
44926;BME280;30662;51.210;7.656;2024-03-23T05:04:42;149776.19;;;3.86;100.00
44926;BME280;30662;51.210;7.656;2024-03-23T05:07:08;149818.97;;;4.03;100.00
44926;BME280;30662;51.210;7.656;2024-03-23T05:09:34;149853.00;;;4.17;100.00
44926;BME280;30662;51.210;7.656;2024-03-23T05:12:00;149859.28;;;4.20;100.00
44926;BME280;30662;51.210;7.656;2024-03-23T05:14:27;149854.25;;;4.18;100.00
44926;BME280;30662;51.210;7.656;2024-03-23T05:16:53;149887.03;;;4.31;100.00
44926;BME280;30662;51.210;7.656;2024-03-23T05:19:18;149888.28;;;4.31;100.00
44926;BME280;30662;51.210;7.656;2024-03-23T05:21:44;149880.75;;;4.28;100.00
44926;BME280;30662;51.210;7.656;2024-03-23T05:24:10;149854.25;;;4.18;100.00
44926;BME280;30662;51.210;7.656;2024-03-23T05:26:36;149879.47;;;4.28;100.00
44926;BME280;30662;51.210;7.656;2024-03-23T05:29:01;149924.81;;;4.46;100.00
44926;BME280;30662;51.210;7.656;2024-03-23T05:31:30;149895.81;;;4.34;100.00
44926;BME280;30662;51.210;7.656;2024-03-23T05:33:56;149887.03;;;4.31;100.00
44926;BME280;30662;51.210;7.656;2024-03-23T05:36:22;149904.66;;;4.38;100.00
44926;BME280;30662;51.210;7.656;2024-03-23T05:38:48;149904.66;;;4.38;100.00
44926;BME280;30662;51.210;7.656;2024-03-23T05:41:14;149874.41;;;4.26;100.00
44926;BME280;30662;51.210;7.656;2024-03-23T05:43:40;149821.50;;;4.04;100.00
44926;BME280;30662;51.210;7.656;2024-03-23T05:46:05;149853.00;;;4.17;100.00
44926;BME280;30662;51.210;7.656;2024-03-23T05:48:32;149879.47;;;4.28;100.00
44926;BME280;30662;51.210;7.656;2024-03-23T05:50:58;149822.75;;;4.05;100.00
44926;BME280;30662;51.210;7.656;2024-03-23T05:53:24;149817.72;;;4.03;100.00
44926;BME280;30662;51.210;7.656;2024-03-23T05:55:51;149801.34;;;3.96;100.00
44926;BME280;30662;51.210;7.656;2024-03-23T05:58:17;149797.56;;;3.95;100.00
44926;BME280;30662;51.210;7.656;2024-03-23T06:00:43;149788.78;;;3.91;100.00
44926;BME280;30662;51.210;7.656;2024-03-23T06:03:09;149774.91;;;3.85;100.00
44926;BME280;30662;51.210;7.656;2024-03-23T06:05:37;149849.22;;;4.15;100.00
44926;BME280;30662;51.210;7.656;2024-03-23T06:08:03;149855.50;;;4.18;100.00
44926;BME280;30662;51.210;7.656;2024-03-23T06:10:29;149847.97;;;4.15;100.00
44926;BME280;30662;51.210;7.656;2024-03-23T06:12:54;149839.13;;;4.11;100.00
44926;BME280;30662;51.210;7.656;2024-03-23T06:15:20;149827.81;;;4.07;100.00
44926;BME280;30662;51.210;7.656;2024-03-23T06:17:46;149808.94;;;3.99;100.00
44926;BME280;30662;51.210;7.656;2024-03-23T06:20:12;149803.84;;;3.97;100.00
44926;BME280;30662;51.210;7.656;2024-03-23T06:22:39;149812.69;;;4.01;100.00
44926;BME280;30662;51.210;7.656;2024-03-23T06:25:05;149797.56;;;3.95;100.00
44926;BME280;30662;51.210;7.656;2024-03-23T06:27:32;149793.81;;;3.93;100.00
44926;BME280;30662;51.210;7.656;2024-03-23T06:29:57;149824.00;;;4.05;100.00
44926;BME280;30662;51.210;7.656;2024-03-23T06:32:23;149815.22;;;4.02;100.00
44926;BME280;30662;51.210;7.656;2024-03-23T06:34:49;149849.22;;;4.15;100.00
44926;BME280;30662;51.210;7.656;2024-03-23T06:37:15;149858.03;;;4.19;100.00
44926;BME280;30662;51.210;7.656;2024-03-23T06:39:42;149836.63;;;4.10;100.00
44926;BME280;30662;51.210;7.656;2024-03-23T06:42:08;149771.16;;;3.84;100.00
44926;BME280;30662;51.210;7.656;2024-03-23T06:44:34;149772.41;;;3.84;100.00
44926;BME280;30662;51.210;7.656;2024-03-23T06:46:59;149787.47;;;3.91;100.00
44926;BME280;30662;51.210;7.656;2024-03-23T06:49:25;149790.03;;;3.92;100.00
44926;BME280;30662;51.210;7.656;2024-03-23T06:51:51;149763.56;;;3.81;100.00
44926;BME280;30662;51.210;7.656;2024-03-23T06:54:17;149758.53;;;3.79;100.00
44926;BME280;30662;51.210;7.656;2024-03-23T06:56:45;149738.41;;;3.71;100.00
44926;BME280;30662;51.210;7.656;2024-03-23T06:59:10;149703.13;;;3.56;100.00
44926;BME280;30662;51.210;7.656;2024-03-23T07:01:36;149665.38;;;3.41;100.00
44926;BME280;30662;51.210;7.656;2024-03-23T07:04:02;149723.28;;;3.65;100.00
44926;BME280;30662;51.210;7.656;2024-03-23T07:06:28;149688.00;;;3.50;100.00
44926;BME280;30662;51.210;7.656;2024-03-23T07:08:54;149700.63;;;3.55;100.00
44926;BME280;30662;51.210;7.656;2024-03-23T07:11:20;149737.13;;;3.70;100.00
44926;BME280;30662;51.210;7.656;2024-03-23T07:13:49;149756.03;;;3.78;100.00
44926;BME280;30662;51.210;7.656;2024-03-23T07:16:16;149772.41;;;3.84;100.00
44926;BME280;30662;51.210;7.656;2024-03-23T07:18:42;149761.06;;;3.80;100.00
44926;BME280;30662;51.210;7.656;2024-03-23T07:21:07;149734.59;;;3.69;100.00
44926;BME280;30662;51.210;7.656;2024-03-23T07:23:33;149676.66;;;3.46;100.00
44926;BME280;30662;51.210;7.656;2024-03-23T07:26:00;149680.44;;;3.47;100.00
44926;BME280;30662;51.210;7.656;2024-03-23T07:28:26;149703.13;;;3.56;100.00
44926;BME280;30662;51.210;7.656;2024-03-23T07:31:04;149710.66;;;3.59;100.00
44926;BME280;30662;51.210;7.656;2024-03-23T07:33:30;149793.81;;;3.93;100.00
44926;BME280;30662;51.210;7.656;2024-03-23T07:35:56;149768.59;;;3.83;100.00
44926;BME280;30662;51.210;7.656;2024-03-23T07:38:21;149791.28;;;3.92;100.00
44926;BME280;30662;51.210;7.656;2024-03-23T07:40:47;149803.84;;;3.97;100.00
44926;BME280;30662;51.210;7.656;2024-03-23T07:43:13;149841.66;;;4.12;100.00
44926;BME280;30662;51.210;7.656;2024-03-23T07:45:38;149897.13;;;4.35;100.00
44926;BME280;30662;51.210;7.656;2024-03-23T07:48:06;149916.03;;;4.42;100.00
44926;BME280;30662;51.210;7.656;2024-03-23T07:50:32;149942.47;;;4.53;100.00
44926;BME280;30662;51.210;7.656;2024-03-23T07:52:58;149914.75;;;4.42;100.00
44926;BME280;30662;51.210;7.656;2024-03-23T07:55:23;149994.13;;;4.74;100.00
44926;BME280;30662;51.210;7.656;2024-03-23T07:57:51;150005.50;;;4.79;100.00
44926;BME280;30662;51.210;7.656;2024-03-23T08:00:17;150059.69;;;5.01;100.00
44926;BME280;30662;51.210;7.656;2024-03-23T08:02:43;149996.66;;;4.75;100.00
44926;BME280;30662;51.210;7.656;2024-03-23T08:05:10;149979.00;;;4.68;100.00
44926;BME280;30662;51.210;7.656;2024-03-23T08:07:35;150019.31;;;4.84;100.00
44926;BME280;30662;51.210;7.656;2024-03-23T08:10:01;150024.41;;;4.86;100.00
44926;BME280;30662;51.210;7.656;2024-03-23T08:12:27;150033.19;;;4.90;100.00
44926;BME280;30662;51.210;7.656;2024-03-23T08:14:53;150096.25;;;5.15;100.00
44926;BME280;30662;51.210;7.656;2024-03-23T08:17:18;150093.75;;;5.14;100.00
44926;BME280;30662;51.210;7.656;2024-03-23T08:19:44;150067.25;;;5.04;100.00
44926;BME280;30662;51.210;7.656;2024-03-23T08:22:11;150074.78;;;5.07;100.00
44926;BME280;30662;51.210;7.656;2024-03-23T08:24:37;150072.28;;;5.06;100.00
44926;BME280;30662;51.210;7.656;2024-03-23T08:27:03;150087.41;;;5.12;100.00
44926;BME280;30662;51.210;7.656;2024-03-23T08:29:29;150121.47;;;5.25;100.00
44926;BME280;30662;51.210;7.656;2024-03-23T08:31:55;150095.00;;;5.15;100.00
44926;BME280;30662;51.210;7.656;2024-03-23T08:34:20;150072.28;;;5.06;100.00
44926;BME280;30662;51.210;7.656;2024-03-23T08:36:46;150165.63;;;5.43;100.00
44926;BME280;30662;51.210;7.656;2024-03-23T08:39:13;150195.84;;;5.56;100.00
44926;BME280;30662;51.210;7.656;2024-03-23T08:41:39;150149.22;;;5.37;100.00
44926;BME280;30662;51.210;7.656;2024-03-23T08:44:05;150068.50;;;5.04;100.00
44926;BME280;30662;51.210;7.656;2024-03-23T08:46:31;150083.63;;;5.10;100.00
44926;BME280;30662;51.210;7.656;2024-03-23T08:48:56;150023.16;;;4.86;100.00
44926;BME280;30662;51.210;7.656;2024-03-23T08:51:22;150108.84;;;5.20;100.00
44926;BME280;30662;51.210;7.656;2024-03-23T08:53:48;150126.47;;;5.28;100.00
44926;BME280;30662;51.210;7.656;2024-03-23T08:56:15;150175.69;;;5.47;100.00
44926;BME280;30662;51.210;7.656;2024-03-23T08:58:41;150134.06;;;5.31;100.00
44926;BME280;30662;51.210;7.656;2024-03-23T09:01:08;150060.94;;;5.01;100.00
44926;BME280;30662;51.210;7.656;2024-03-23T09:03:34;150059.69;;;5.01;100.00
44926;BME280;30662;51.210;7.656;2024-03-23T09:06:00;150091.19;;;5.13;100.00
44926;BME280;30662;51.210;7.656;2024-03-23T09:08:26;150105.06;;;5.19;100.00
44926;BME280;30662;51.210;7.656;2024-03-23T09:10:52;150092.44;;;5.14;100.00
44926;BME280;30662;51.210;7.656;2024-03-23T09:13:19;150069.75;;;5.05;100.00
44926;BME280;30662;51.210;7.656;2024-03-23T09:15:46;150082.38;;;5.10;100.00
44926;BME280;30662;51.210;7.656;2024-03-23T09:18:12;150048.34;;;4.96;100.00
44926;BME280;30662;51.210;7.656;2024-03-23T09:20:38;150084.91;;;5.11;100.00
44926;BME280;30662;51.210;7.656;2024-03-23T09:23:04;150170.66;;;5.45;100.00
44926;BME280;30662;51.210;7.656;2024-03-23T09:25:29;150142.88;;;5.34;100.00
44926;BME280;30662;51.210;7.656;2024-03-23T09:27:55;150159.28;;;5.41;100.00
44926;BME280;30662;51.210;7.656;2024-03-23T09:30:22;150168.13;;;5.44;100.00
44926;BME280;30662;51.210;7.656;2024-03-23T09:32:48;150136.59;;;5.32;100.00
44926;BME280;30662;51.210;7.656;2024-03-23T09:35:14;150169.38;;;5.45;100.00
44926;BME280;30662;51.210;7.656;2024-03-23T09:37:40;150156.75;;;5.40;100.00
44926;BME280;30662;51.210;7.656;2024-03-23T09:40:07;150142.88;;;5.34;100.00
44926;BME280;30662;51.210;7.656;2024-03-23T09:42:34;150108.84;;;5.20;100.00
44926;BME280;30662;51.210;7.656;2024-03-23T09:45:00;150145.41;;;5.35;100.00
44926;BME280;30662;51.210;7.656;2024-03-23T09:47:28;150176.94;;;5.48;100.00
44926;BME280;30662;51.210;7.656;2024-03-23T09:49:55;150155.50;;;5.39;100.00
44926;BME280;30662;51.210;7.656;2024-03-23T09:52:20;150038.22;;;4.92;100.00
44926;BME280;30662;51.210;7.656;2024-03-23T09:54:46;149844.22;;;4.13;100.00
44926;BME280;30662;51.210;7.656;2024-03-23T09:57:12;149677.94;;;3.46;100.00
44926;BME280;30662;51.210;7.656;2024-03-23T09:59:38;149572.16;;;3.03;100.00
44926;BME280;30662;51.210;7.656;2024-03-23T10:02:04;149531.91;;;2.87;100.00
44926;BME280;30662;51.210;7.656;2024-03-23T10:04:38;149536.94;;;2.89;100.00
44926;BME280;30662;51.210;7.656;2024-03-23T10:07:11;149568.41;;;3.02;100.00
44926;BME280;30662;51.210;7.656;2024-03-23T10:09:37;149589.78;;;3.11;100.00
44926;BME280;30662;51.210;7.656;2024-03-23T10:12:08;149709.41;;;3.59;100.00
44926;BME280;30662;51.210;7.656;2024-03-23T10:14:34;149729.56;;;3.67;100.00
44926;BME280;30662;51.210;7.656;2024-03-23T10:17:12;149803.84;;;3.97;100.00
44926;BME280;30662;51.210;7.656;2024-03-23T10:19:39;149903.41;;;4.37;100.00
44926;BME280;30662;51.210;7.656;2024-03-23T10:22:06;150033.19;;;4.90;100.00
44926;BME280;30662;51.210;7.656;2024-03-23T10:24:32;150156.75;;;5.40;100.00
44926;BME280;30662;51.210;7.656;2024-03-23T10:26:58;150247.56;;;5.76;100.00
44926;BME280;30662;51.210;7.656;2024-03-23T10:29:23;150364.97;;;6.24;100.00
44926;BME280;30662;51.210;7.656;2024-03-23T10:31:49;150252.59;;;5.78;100.00
44926;BME280;30662;51.210;7.656;2024-03-23T10:34:15;150180.72;;;5.49;100.00
44926;BME280;30662;51.210;7.656;2024-03-23T10:36:42;150082.38;;;5.10;100.00
44926;BME280;30662;51.210;7.656;2024-03-23T10:39:08;150052.09;;;4.97;100.00
44926;BME280;30662;51.210;7.656;2024-03-23T10:41:35;149995.41;;;4.75;100.00
44926;BME280;30662;51.210;7.656;2024-03-23T10:44:02;150393.97;;;6.35;100.00
44926;BME280;30662;51.210;7.656;2024-03-23T10:46:28;150753.81;;;7.81;100.00
44926;BME280;30662;51.210;7.656;2024-03-23T10:48:53;151042.03;;;8.97;100.00
44926;BME280;30662;51.210;7.656;2024-03-23T10:51:19;150852.41;;;8.20;100.00
44926;BME280;30662;51.210;7.656;2024-03-23T10:53:47;150579.56;;;7.10;100.00
44926;BME280;30662;51.210;7.656;2024-03-23T10:56:14;150507.59;;;6.81;100.00
44926;BME280;30662;51.210;7.656;2024-03-23T10:58:43;150482.31;;;6.71;100.00
44926;BME280;30662;51.210;7.656;2024-03-23T11:01:10;150496.22;;;6.77;100.00
44926;BME280;30662;51.210;7.656;2024-03-23T11:03:37;150378.81;;;6.29;100.00
44926;BME280;30662;51.210;7.656;2024-03-23T11:06:04;150207.22;;;5.60;100.00
44926;BME280;30662;51.210;7.656;2024-03-23T11:08:32;150040.78;;;4.93;100.00
44926;BME280;30662;51.210;7.656;2024-03-23T11:11:17;150033.19;;;4.90;100.00
44926;BME280;30662;51.210;7.656;2024-03-23T11:13:43;150042.06;;;4.93;100.00
44926;BME280;30662;51.210;7.656;2024-03-23T11:16:15;150068.50;;;5.04;100.00
44926;BME280;30662;51.210;7.656;2024-03-23T11:18:41;150153.00;;;5.38;100.00
44926;BME280;30662;51.210;7.656;2024-03-23T11:21:07;150237.50;;;5.72;100.00
44926;BME280;30662;51.210;7.656;2024-03-23T11:23:33;150375.03;;;6.28;100.00
44926;BME280;30662;51.210;7.656;2024-03-23T11:25:59;150612.34;;;7.24;100.00
44926;BME280;30662;51.210;7.656;2024-03-23T11:28:26;150691.94;;;7.56;100.00
44926;BME280;30662;51.210;7.656;2024-03-23T11:30:52;150613.59;;;7.24;100.00
44926;BME280;30662;51.210;7.656;2024-03-23T11:33:18;150462.13;;;6.63;100.00
44926;BME280;30662;51.210;7.656;2024-03-23T11:35:43;150294.31;;;5.95;100.00
44926;BME280;30662;51.210;7.656;2024-03-23T11:38:11;150153.00;;;5.38;100.00
44926;BME280;30662;51.210;7.656;2024-03-23T11:40:38;150031.94;;;4.89;100.00
44926;BME280;30662;51.210;7.656;2024-03-23T11:43:05;149818.97;;;4.03;100.00
44926;BME280;30662;51.210;7.656;2024-03-23T11:45:37;149769.84;;;3.83;100.00
44926;BME280;30662;51.210;7.656;2024-03-23T11:48:05;149739.66;;;3.71;100.00
44926;BME280;30662;51.210;7.656;2024-03-23T11:50:31;149709.41;;;3.59;100.00
44926;BME280;30662;51.210;7.656;2024-03-23T11:53:14;149699.38;;;3.55;100.00
44926;BME280;30662;51.210;7.656;2024-03-23T11:55:46;149698.06;;;3.54;100.00
44926;BME280;30662;51.210;7.656;2024-03-23T11:58:13;149637.66;;;3.30;100.00
44926;BME280;30662;51.210;7.656;2024-03-23T12:00:40;149670.38;;;3.43;100.00
44926;BME280;30662;51.210;7.656;2024-03-23T12:03:10;149776.19;;;3.86;100.00
44926;BME280;30662;51.210;7.656;2024-03-23T12:05:36;149813.97;;;4.01;100.00
44926;BME280;30662;51.210;7.656;2024-03-23T12:08:15;149778.69;;;3.87;100.00
44926;BME280;30662;51.210;7.656;2024-03-23T12:10:44;149824.00;;;4.05;100.00
44926;BME280;30662;51.210;7.656;2024-03-23T12:13:10;150165.63;;;5.43;100.00
44926;BME280;30662;51.210;7.656;2024-03-23T12:15:36;150428.03;;;6.49;100.00
44926;BME280;30662;51.210;7.656;2024-03-23T12:18:09;150482.31;;;6.71;100.00
44926;BME280;30662;51.210;7.656;2024-03-23T12:20:36;150828.34;;;8.11;100.00
44926;BME280;30662;51.210;7.656;2024-03-23T12:23:06;151110.34;;;9.24;93.60
44926;BME280;30662;51.210;7.656;2024-03-23T12:25:32;151209.03;;;9.64;90.20
44926;BME280;30662;51.210;7.656;2024-03-23T12:27:58;150921.97;;;8.48;84.80
44926;BME280;30662;51.210;7.656;2024-03-23T12:30:24;150899.19;;;8.39;89.94
44926;BME280;30662;51.210;7.656;2024-03-23T12:32:50;150828.34;;;8.11;90.54
44926;BME280;30662;51.210;7.656;2024-03-23T12:35:17;150939.66;;;8.55;88.80
44926;BME280;30662;51.210;7.656;2024-03-23T12:37:43;150889.09;;;8.35;84.10
44926;BME280;30662;51.210;7.656;2024-03-23T12:40:09;150901.75;;;8.40;86.62
44926;BME280;30662;51.210;7.656;2024-03-23T12:42:35;151115.38;;;9.26;77.37
44926;BME280;30662;51.210;7.656;2024-03-23T12:45:01;151219.09;;;9.68;77.43
44926;BME280;30662;51.210;7.656;2024-03-23T12:47:27;151121.72;;;9.29;81.42
44926;BME280;30662;51.210;7.656;2024-03-23T12:49:53;151152.06;;;9.41;80.57
44926;BME280;30662;51.210;7.656;2024-03-23T12:52:20;150930.78;;;8.52;88.82
44926;BME280;30662;51.210;7.656;2024-03-23T12:54:45;150240.03;;;5.73;100.00
44926;BME280;30662;51.210;7.656;2024-03-23T12:57:11;149965.13;;;4.62;100.00
44926;BME280;30662;51.210;7.656;2024-03-23T12:59:37;149849.22;;;4.15;100.00
44926;BME280;30662;51.210;7.656;2024-03-23T13:02:03;149894.56;;;4.34;100.00
44926;BME280;30662;51.210;7.656;2024-03-23T13:04:29;150095.00;;;5.15;100.00
44926;BME280;30662;51.210;7.656;2024-03-23T13:06:54;150284.19;;;5.91;100.00
44926;BME280;30662;51.210;7.656;2024-03-23T13:09:21;150306.88;;;6.00;100.00
44926;BME280;30662;51.210;7.656;2024-03-23T13:11:47;150097.50;;;5.16;100.00
44926;BME280;30662;51.210;7.656;2024-03-23T13:14:13;150005.50;;;4.79;100.00
44926;BME280;30662;51.210;7.656;2024-03-23T13:16:38;149986.59;;;4.71;100.00
44926;BME280;30662;51.210;7.656;2024-03-23T13:19:04;149778.69;;;3.87;100.00
44926;BME280;30662;51.210;7.656;2024-03-23T13:21:30;149763.56;;;3.81;100.00
44926;BME280;30662;51.210;7.656;2024-03-23T13:23:56;149781.19;;;3.88;100.00
44926;BME280;30662;51.210;7.656;2024-03-23T13:26:23;149955.06;;;4.58;100.00
44926;BME280;30662;51.210;7.656;2024-03-23T13:28:48;150084.91;;;5.11;100.00
44926;BME280;30662;51.210;7.656;2024-03-23T13:31:14;150183.28;;;5.50;100.00
44926;BME280;30662;51.210;7.656;2024-03-23T13:33:40;150245.06;;;5.75;100.00
44926;BME280;30662;51.210;7.656;2024-03-23T13:36:06;150277.84;;;5.89;100.00
44926;BME280;30662;51.210;7.656;2024-03-23T13:38:32;150338.44;;;6.13;100.00
44926;BME280;30662;51.210;7.656;2024-03-23T13:40:59;150372.53;;;6.27;100.00